Time;durP1;ratioP1;P1;durP2;ratioP2;P2;SDS_P1;SDS_P2;PMS_P1;PMS_P2;Temp;Humidity;BMP_temperature;BMP_pressure;BME280_temperature;BME280_humidity;BME280_pressure;Samples;Min_cycle;Max_cycle;Signal;HPM_P1;HPM_P2
2021/01/20 00:02:01;;;;;;;1.80;0.70;;;4.70;56.60;;;2.74;64.70;95637.88;5009126;28;20034;-68
2021/01/20 00:04:27;;;;;;;1.35;0.80;;;4.80;56.40;;;2.74;65.23;95639.66;4993270;28;20457;-68
2021/01/20 00:06:53;;;;;;;1.63;0.43;;;4.80;56.80;;;2.73;64.82;95636.25;5002870;28;20101;-68
2021/01/20 00:09:18;;;;;;;1.40;0.60;;;4.80;56.90;;;2.70;65.34;95646.09;5001296;28;20042;-68
2021/01/20 00:11:44;;;;;;;1.58;0.60;;;4.80;57.70;;;2.67;65.72;95641.19;5010076;28;20037;-68
2021/01/20 00:14:16;;;;;;;2.28;0.73;;;4.80;59.30;;;2.63;65.21;95643.28;4989044;28;20054;-68
2021/01/20 00:16:42;;;;;;;2.88;0.90;;;4.80;58.70;;;2.60;65.91;95635.00;4999179;28;20041;-68
2021/01/20 00:19:08;;;;;;;2.50;1.08;;;4.70;59.30;;;2.55;65.83;95629.44;4999282;28;20062;-68
2021/01/20 00:21:35;;;;;;;5.10;1.05;;;4.70;60.30;;;2.46;65.49;95629.34;4990538;28;20038;-69
2021/01/20 00:24:00;;;;;;;2.20;0.90;;;4.60;59.70;;;2.45;66.49;95627.72;4990485;28;20105;-69
2021/01/20 00:26:26;;;;;;;2.55;0.90;;;4.60;59.80;;;2.38;66.16;95625.91;4989507;28;20513;-69
2021/01/20 00:28:52;;;;;;;2.90;1.20;;;4.60;59.80;;;2.37;66.39;95640.66;4988413;28;20046;-69
2021/01/20 00:31:18;;;;;;;2.25;1.00;;;4.60;61.50;;;2.26;66.57;95632.28;4990306;28;20044;-69
2021/01/20 00:33:43;;;;;;;2.15;0.85;;;4.40;61.70;;;2.19;66.72;95639.84;4990219;28;20038;-69
2021/01/20 00:36:10;;;;;;;2.63;1.10;;;4.30;59.90;;;2.10;66.08;95638.16;4983045;28;20042;-69
2021/01/20 00:38:35;;;;;;;1.40;0.65;;;4.20;60.00;;;2.03;66.21;95644.88;4988265;28;20088;-69
2021/01/20 00:41:01;;;;;;;1.42;0.63;;;4.10;60.30;;;1.93;65.74;95642.34;4988702;28;20071;-69
2021/01/20 00:43:27;;;;;;;2.92;0.75;;;3.90;60.30;;;1.84;66.61;95638.06;4988894;28;20043;-69
2021/01/20 00:45:53;;;;;;;2.03;0.70;;;3.80;60.90;;;1.74;66.40;95637.28;4988839;28;20506;-69
2021/01/20 00:48:19;;;;;;;3.83;0.70;;;3.70;61.20;;;1.65;66.50;95626.03;4989538;28;20093;-69
2021/01/20 00:50:44;;;;;;;1.20;0.50;;;3.70;61.30;;;1.59;67.31;95626.63;4988491;28;20034;-69
2021/01/20 00:53:10;;;;;;;1.10;0.50;;;3.70;62.10;;;1.53;67.12;95625.41;4990053;28;20031;-69
2021/01/20 00:55:36;;;;;;;2.83;0.88;;;3.60;62.80;;;1.48;67.73;95624.22;4990116;28;20031;-70
2021/01/20 00:58:02;;;;;;;2.65;0.80;;;3.60;63.20;;;1.45;67.38;95627.09;4982724;28;20672;-69
2021/01/20 01:00:27;;;;;;;2.28;0.90;;;3.60;63.60;;;1.44;67.72;95628.06;4977229;28;20026;-68
2021/01/20 01:02:53;;;;;;;2.72;0.80;;;3.60;64.30;;;1.39;67.79;95619.91;5001781;28;20414;-69
2021/01/20 01:05:19;;;;;;;1.73;0.73;;;3.60;64.70;;;1.37;67.33;95629.59;4989593;28;20125;-68
2021/01/20 01:07:44;;;;;;;1.85;0.50;;;3.50;64.70;;;1.31;68.05;95625.78;4989767;28;20092;-68
2021/01/20 01:10:10;;;;;;;2.80;0.90;;;3.50;65.10;;;1.22;68.22;95617.09;4988895;28;20042;-68
2021/01/20 01:12:36;;;;;;;1.73;0.85;;;3.50;65.00;;;1.23;67.71;95636.88;4988253;28;20034;-69
2021/01/20 01:15:06;;;;;;;1.70;0.90;;;3.40;64.70;;;1.22;68.58;95637.84;4988112;28;20107;-68
2021/01/20 01:17:31;;;;;;;2.88;0.80;;;3.40;64.40;;;1.21;67.71;95646.56;4988801;28;20129;-68
2021/01/20 01:19:57;;;;;;;2.50;1.08;;;3.40;64.80;;;1.20;67.80;95639.75;4988549;28;20112;-68
2021/01/20 01:22:23;;;;;;;3.78;1.02;;;3.30;65.20;;;1.20;67.83;95649.31;4984570;28;20474;-68
2021/01/20 01:24:49;;;;;;;4.47;1.60;;;3.30;65.30;;;1.18;68.94;95646.03;4987957;28;20510;-69
2021/01/20 01:27:14;;;;;;;6.15;1.85;;;3.30;65.70;;;1.15;68.59;95641.16;4987479;28;20050;-68
2021/01/20 01:29:40;;;;;;;5.43;1.85;;;3.30;65.60;;;1.12;69.04;95642.22;4989399;28;20030;-68
2021/01/20 01:32:06;;;;;;;2.20;0.90;;;3.20;65.50;;;1.08;67.96;95640.88;4988809;28;20402;-68
2021/01/20 01:34:33;;;;;;;3.13;1.00;;;3.10;64.90;;;1.05;68.67;95645.53;4989536;28;20121;-68
2021/01/20 01:36:59;;;;;;;2.58;0.80;;;3.10;64.50;;;1.03;69.06;95655.22;4987430;28;20062;-68
2021/01/20 01:39:25;;;;;;;1.42;0.70;;;3.10;65.10;;;0.99;68.24;95659.88;4986977;28;20065;-68
2021/01/20 01:41:50;;;;;;;2.95;0.60;;;3.10;65.40;;;0.94;68.22;95658.66;4988402;28;20042;-68
2021/01/20 01:44:19;;;;;;;1.50;0.70;;;3.10;65.00;;;0.86;68.94;95638.63;4988312;28;20041;-69
2021/01/20 01:46:45;;;;;;;2.70;0.77;;;3.10;65.20;;;0.88;68.61;95639.31;4986967;28;20062;-68
2021/01/20 01:49:11;;;;;;;1.60;0.77;;;3.00;65.40;;;0.88;68.61;95641.88;4987404;28;20399;-68
2021/01/20 01:51:38;;;;;;;1.67;0.65;;;3.00;65.50;;;0.88;68.96;95634.13;4987083;28;20038;-68
2021/01/20 01:54:03;;;;;;;1.00;0.50;;;3.10;65.30;;;0.89;68.42;95635.75;4987131;28;20510;-68
2021/01/20 01:56:29;;;;;;;1.00;0.50;;;3.00;65.80;;;0.91;68.99;95628.69;4970354;28;20071;-68
2021/01/20 01:58:55;;;;;;;1.05;0.73;;;3.10;65.60;;;0.93;68.78;95626.78;4988282;28;20577;-68
2021/01/20 02:01:20;;;;;;;1.67;0.88;;;3.10;65.10;;;0.95;69.00;95619.69;4971480;28;20053;-68
2021/01/20 02:03:50;;;;;;;2.53;0.95;;;3.20;64.50;;;0.99;68.11;95621.03;4986162;28;20041;-68
2021/01/20 02:06:16;;;;;;;1.10;0.50;;;3.20;63.90;;;1.03;68.39;95617.19;4987061;28;20030;-68
2021/01/20 02:08:43;;;;;;;1.77;0.63;;;3.30;63.60;;;1.08;68.13;95620.16;4987669;28;20034;-68
2021/01/20 02:11:54;;;;;;;1.23;0.60;;;3.40;62.70;;;1.14;67.81;95619.59;4986253;28;20724;-68
2021/01/20 02:15:02;;;;;;;1.55;0.70;;;3.40;62.30;;;1.18;68.75;95610.59;4982667;28;20145;-68
2021/01/20 02:17:49;;;;;;;1.10;0.60;;;3.50;63.70;;;1.16;68.97;95601.34;4960271;28;20426;-68
2021/01/20 02:20:32;;;;;;;1.13;0.50;;;3.40;65.40;;;1.15;69.52;95605.69;4971828;28;20112;-67
2021/01/20 02:22:59;;;;;;;1.42;0.50;;;3.40;65.80;;;1.15;68.85;95608.28;4986362;28;20069;-68
2021/01/20 02:25:31;;;;;;;2.15;0.75;;;3.40;64.20;;;1.19;67.52;95604.44;4966763;28;20051;-69
2021/01/20 02:28:19;;;;;;;1.33;0.47;;;3.50;62.90;;;1.21;67.58;95610.28;4982321;28;20100;-68
2021/01/20 02:30:45;;;;;;;3.08;0.57;;;3.50;61.90;;;1.25;67.59;95604.81;5005302;28;20045;-68
2021/01/20 02:33:15;;;;;;;2.20;0.82;;;3.50;62.30;;;1.27;67.60;95602.91;4986847;28;20041;-68
2021/01/20 02:35:40;;;;;;;4.28;2.25;;;3.60;62.50;;;1.26;68.10;95602.09;5006801;28;20037;-67
2021/01/20 02:38:07;;;;;;;13.27;5.75;;;3.50;63.40;;;1.26;68.33;95606.47;4968855;28;20054;-67
2021/01/20 02:40:33;;;;;;;6.82;3.47;;;3.50;63.60;;;1.21;68.62;95599.94;4984566;28;20033;-68
2021/01/20 02:42:59;;;;;;;3.72;1.75;;;3.40;63.50;;;1.21;68.59;95604.31;5005408;28;20119;-68
2021/01/20 02:45:25;;;;;;;5.75;0.93;;;3.40;63.20;;;1.19;68.56;95601.03;5006914;28;20030;-68
2021/01/20 02:47:51;;;;;;;2.35;0.90;;;3.40;63.20;;;1.18;68.28;95602.00;5005356;28;20038;-69
2021/01/20 02:50:16;;;;;;;1.70;0.82;;;3.40;63.70;;;1.17;67.86;95603.78;5004767;28;20497;-68
2021/01/20 02:53:09;;;;;;;1.48;0.50;;;3.30;63.80;;;1.09;67.95;95593.28;5005408;28;20283;-68
2021/01/20 02:55:34;;;;;;;2.30;0.77;;;3.30;63.80;;;1.14;68.16;95596.28;5005793;28;20034;-68
2021/01/20 02:58:27;;;;;;;1.35;0.60;;;3.20;63.60;;;1.14;67.64;95598.88;5005215;28;20061;-67
2021/01/20 03:00:53;;;;;;;0.95;0.60;;;3.30;63.80;;;1.13;68.04;95592.06;4991728;28;20034;-68
2021/01/20 03:03:19;;;;;;;1.23;0.50;;;3.30;63.50;;;1.12;68.72;95590.41;4972930;28;20049;-68
2021/01/20 03:05:45;;;;;;;1.65;0.70;;;3.20;63.90;;;1.12;67.86;95585.25;4989242;28;20038;-68
2021/01/20 03:08:11;;;;;;;1.35;0.50;;;3.20;63.50;;;1.14;68.87;95587.72;4988144;28;20068;-68
2021/01/20 03:10:37;;;;;;;1.23;0.52;;;3.30;63.40;;;1.13;68.40;95589.50;5005247;28;20046;-68
2021/01/20 03:13:03;;;;;;;1.65;0.70;;;3.30;64.00;;;1.14;68.74;95583.34;4989032;28;20057;-70
2021/01/20 03:15:38;;;;;;;12.85;6.90;;;3.30;64.10;;;1.15;68.32;95590.16;5007083;28;20052;-68
2021/01/20 03:18:05;;;;;;;12.10;6.28;;;3.40;64.40;;;1.17;68.83;95584.84;4999480;28;20038;-68
2021/01/20 03:20:31;;;;;;;15.20;7.43;;;3.40;65.50;;;1.19;69.36;95586.31;4989204;28;20599;-69
2021/01/20 03:22:57;;;;;;;2.42;1.42;;;3.50;66.90;;;1.22;69.47;95585.22;5006593;28;20030;-68
2021/01/20 03:25:23;;;;;;;1.90;0.77;;;3.50;67.00;;;1.24;69.05;95583.28;4989030;28;20838;-69
2021/01/20 03:27:49;;;;;;;1.02;0.50;;;3.50;64.40;;;1.25;68.16;95578.91;5006000;28;20375;-69
2021/01/20 03:30:16;;;;;;;1.27;0.40;;;3.50;63.70;;;1.27;68.51;95583.00;5005928;28;20041;-69
2021/01/20 03:32:41;;;;;;;1.70;0.60;;;3.50;63.00;;;1.29;67.95;95577.66;5005681;28;20133;-70
2021/01/20 03:35:08;;;;;;;1.80;0.50;;;3.50;63.10;;;1.31;67.97;95580.94;5006230;28;20129;-69
2021/01/20 03:37:34;;;;;;;1.05;0.57;;;3.60;63.10;;;1.32;68.07;95570.41;5006339;28;20038;-69
2021/01/20 03:39:59;;;;;;;2.42;0.75;;;3.50;63.20;;;1.34;69.08;95576.25;5006119;28;20117;-69
2021/01/20 03:42:25;;;;;;;1.30;0.57;;;3.60;63.40;;;1.35;68.29;95567.53;4984974;28;20062;-69
2021/01/20 03:44:51;;;;;;;1.23;0.60;;;3.60;63.30;;;1.36;68.56;95561.41;4989157;28;20053;-69
2021/01/20 03:47:16;;;;;;;2.78;1.13;;;3.60;63.20;;;1.40;68.64;95572.31;5004846;28;20041;-69
2021/01/20 03:49:42;;;;;;;3.53;1.75;;;3.60;63.30;;;1.41;68.78;95563.56;5005116;28;20058;-69
2021/01/20 03:52:08;;;;;;;5.70;2.78;;;3.70;63.50;;;1.41;68.30;95568.75;5005346;28;20038;-68
2021/01/20 03:54:35;;;;;;;6.30;2.90;;;3.70;63.50;;;1.45;67.95;95562.31;5005069;28;20042;-69
2021/01/20 03:57:02;;;;;;;2.65;1.00;;;3.70;64.00;;;1.44;68.47;95558.09;5004158;28;20037;-69
2021/01/20 03:59:28;;;;;;;1.88;0.93;;;3.70;64.00;;;1.43;68.46;95561.63;5006177;28;20474;-69
2021/01/20 04:01:53;;;;;;;4.22;2.35;;;3.70;64.50;;;1.40;69.08;95562.75;5005105;28;20034;-68
2021/01/20 04:04:19;;;;;;;43.00;21.85;;;3.60;64.60;;;1.36;69.06;95551.06;5008913;28;20041;-69
2021/01/20 04:06:45;;;;;;;40.70;23.30;;;3.60;65.60;;;1.30;69.21;95555.97;5008971;28;20057;-69
2021/01/20 04:09:11;;;;;;;9.07;5.57;;;3.50;65.50;;;1.25;69.45;95553.00;5009459;28;20092;-69
2021/01/20 04:11:37;;;;;;;8.20;4.03;;;3.40;65.50;;;1.17;69.09;95557.16;5009280;28;20468;-69
2021/01/20 04:14:03;;;;;;;3.80;1.88;;;3.40;65.70;;;1.11;69.59;95549.94;5009716;28;20125;-69
2021/01/20 04:16:28;;;;;;;3.45;1.58;;;3.30;66.40;;;1.07;69.49;95555.56;5009067;28;20084;-69
2021/01/20 04:18:54;;;;;;;3.92;1.52;;;3.20;66.90;;;1.00;69.88;95549.31;5008675;28;20034;-69
2021/01/20 04:21:20;;;;;;;3.08;1.58;;;3.10;66.90;;;0.95;69.49;95551.53;5009254;28;20458;-68
2021/01/20 04:23:46;;;;;;;2.03;0.85;;;3.10;67.10;;;0.88;69.75;95546.09;5009626;28;20656;-69
2021/01/20 04:26:12;;;;;;;2.58;0.93;;;3.10;67.30;;;0.82;70.32;95547.50;5007111;28;20056;-68
2021/01/20 04:28:37;;;;;;;1.73;0.80;;;3.10;67.40;;;0.77;69.78;95554.06;5008771;28;20057;-68
2021/01/20 04:31:03;;;;;;;3.30;0.88;;;3.00;67.60;;;0.73;70.43;95537.19;5009300;28;20042;-69
2021/01/20 04:33:29;;;;;;;2.13;0.82;;;3.00;67.60;;;0.69;70.19;95536.66;5007679;28;20037;-69
2021/01/20 04:35:55;;;;;;;2.40;0.90;;;2.90;67.80;;;0.65;70.53;95544.81;4991445;28;20468;-69
2021/01/20 04:38:21;;;;;;;1.00;0.60;;;2.90;68.00;;;0.61;70.36;95539.13;5008706;28;20050;-69
2021/01/20 04:40:47;;;;;;;2.15;1.13;;;2.80;68.10;;;0.58;70.43;95545.41;5008708;28;20037;-70
2021/01/20 04:43:13;;;;;;;2.08;0.70;;;2.90;67.80;;;0.55;70.89;95545.69;5007562;28;20034;-70
2021/01/20 04:45:39;;;;;;;2.00;0.95;;;2.80;68.10;;;0.52;70.45;95534.81;5009233;28;20058;-69
2021/01/20 04:48:05;;;;;;;3.55;1.10;;;2.70;68.20;;;0.50;70.69;95537.53;5008049;28;20553;-69
2021/01/20 04:50:31;;;;;;;2.33;1.33;;;2.70;68.50;;;0.45;70.74;95539.69;4971519;28;20034;-69
2021/01/20 04:53:00;;;;;;;3.10;1.35;;;2.60;68.50;;;0.44;71.17;95538.06;4992565;28;20064;-69
2021/01/20 04:55:27;;;;;;;2.60;1.45;;;2.60;68.10;;;0.41;70.82;95533.19;5007790;28;20057;-69
2021/01/20 04:57:53;;;;;;;1.92;1.13;;;2.60;68.40;;;0.39;70.56;95531.69;5007072;28;20049;-69
2021/01/20 05:00:19;;;;;;;2.13;1.10;;;2.60;68.40;;;0.36;70.80;95525.03;5008610;28;20547;-69
2021/01/20 05:02:45;;;;;;;2.78;1.42;;;2.60;68.40;;;0.36;70.51;95534.56;5007513;28;20044;-69
2021/01/20 05:05:11;;;;;;;2.30;1.08;;;2.60;68.30;;;0.35;71.06;95531.16;5008599;28;20467;-69
2021/01/20 05:07:36;;;;;;;2.70;1.10;;;2.60;68.20;;;0.32;70.80;95534.03;4990609;28;20089;-69
2021/01/20 05:10:03;;;;;;;2.88;1.27;;;2.60;68.50;;;0.30;71.39;95530.78;5007498;28;20100;-69
2021/01/20 05:12:35;;;;;;;1.70;0.90;;;2.60;68.90;;;0.27;72.12;95531.06;5007855;28;20072;-69
2021/01/20 05:15:05;;;;;;;3.15;1.20;;;2.60;69.80;;;0.26;71.03;95532.03;5007093;28;20044;-68
2021/01/20 05:17:32;;;;;;;4.03;1.42;;;2.60;69.30;;;0.22;71.50;95538.41;5008421;28;20041;-71
2021/01/20 05:19:58;;;;;;;3.55;1.23;;;2.50;69.80;;;0.19;71.78;95534.31;5000946;28;20085;-70
2021/01/20 05:22:24;;;;;;;3.55;1.42;;;2.40;70.20;;;0.17;71.42;95538.00;5005439;28;20034;-68
2021/01/20 05:25:01;;;;;;;2.80;1.10;;;2.40;69.60;;;0.13;73.20;95534.06;5006417;28;20465;-68
2021/01/20 05:27:28;;;;;;;2.08;1.00;;;2.40;70.20;;;0.12;72.00;95527.28;5006348;28;20068;-67
2021/01/20 05:29:59;;;;;;;2.53;0.95;;;2.40;70.20;;;0.08;72.49;95538.84;5008782;28;20030;-68
2021/01/20 05:32:25;;;;;;;3.40;1.70;;;2.40;69.90;;;0.02;71.91;95522.13;5007646;28;20045;-69
2021/01/20 05:35:02;;;;;;;2.65;1.50;;;2.40;69.40;;;0.09;72.68;95527.56;5026049;28;20538;-69
2021/01/20 05:37:28;;;;;;;2.55;1.33;;;2.40;69.70;;;0.10;72.06;95534.34;5010108;28;20053;-69
2021/01/20 05:40:11;;;;;;;3.17;2.03;;;2.40;70.10;;;0.09;72.61;95527.56;5009926;28;20049;-68
2021/01/20 05:42:51;;;;;;;5.55;2.90;;;2.40;69.60;;;0.08;72.51;95525.94;5018279;28;20065;-68
2021/01/20 05:45:22;;;;;;;5.88;3.08;;;2.40;69.50;;;0.07;72.28;95529.47;5013579;28;20071;-68
2021/01/20 05:48:08;;;;;;;5.68;3.03;;;2.30;69.90;;;0.05;73.24;95526.22;5027419;28;20041;-68
2021/01/20 05:50:35;;;;;;;5.65;2.88;;;2.40;70.00;;;0.05;72.29;95526.22;5018212;28;20065;-69
2021/01/20 05:53:11;;;;;;;5.65;2.53;;;2.30;70.30;;;0.02;73.50;95524.72;5011847;28;20029;-67
2021/01/20 05:55:38;;;;;;;10.68;5.28;;;2.30;70.80;;;0.01;72.43;95519.69;5005880;28;20068;-68
2021/01/20 05:58:07;;;;;;;8.90;4.13;;;2.30;70.90;;;-0.01;72.99;95527.56;5006479;28;20041;-68
2021/01/20 06:00:33;;;;;;;12.05;6.05;;;2.30;70.60;;;0.01;71.99;95522.28;5005938;28;20030;-68
2021/01/20 06:02:59;;;;;;;6.53;3.20;;;2.30;69.50;;;0.03;72.11;95521.19;5006792;28;20446;-68
2021/01/20 06:05:25;;;;;;;5.40;2.58;;;2.40;69.50;;;0.06;72.26;95517.50;5005707;28;20045;-68
2021/01/20 06:07:52;;;;;;;4.40;2.25;;;2.40;69.30;;;0.07;72.23;95516.53;5006408;28;20030;-68
2021/01/20 06:10:19;;;;;;;4.45;2.50;;;2.30;69.30;;;0.09;71.90;95522.38;5007011;28;20117;-68
2021/01/20 06:12:45;;;;;;;4.82;1.70;;;2.40;69.60;;;0.09;71.85;95522.38;5007205;28;20446;-69
2021/01/20 06:15:12;;;;;;;2.97;1.50;;;2.40;69.40;;;0.10;71.96;95518.84;5006427;28;20060;-65
2021/01/20 06:17:42;;;;;;;13.10;5.20;;;2.40;69.00;;;0.11;72.35;95521.28;5007113;28;20030;-65
2021/01/20 06:20:09;;;;;;;7.75;3.15;;;2.30;69.00;;;0.14;72.14;95520.19;5003993;28;20187;-67
2021/01/20 06:22:47;;;;;;;7.07;3.03;;;2.40;68.90;;;0.19;72.05;95523.16;5007149;28;20061;-66
2021/01/20 06:25:30;;;;;;;3.58;1.65;;;2.40;69.00;;;0.25;72.00;95517.47;5006438;28;20120;-67
2021/01/20 06:28:00;;;;;;;2.35;0.98;;;2.50;68.90;;;0.32;72.20;95518.53;5005128;28;20041;-67
2021/01/20 06:30:45;;;;;;;2.75;1.25;;;2.60;68.80;;;0.36;72.26;95517.28;5006404;28;20034;-68
2021/01/20 06:33:15;;;;;;;3.13;1.25;;;2.60;68.70;;;0.42;72.28;95519.28;4988686;28;20033;-66
2021/01/20 06:35:49;;;;;;;1.98;0.90;;;2.70;68.80;;;0.48;72.35;95523.13;4967731;28;20174;-64
2021/01/20 06:38:39;;;;;;;1.50;0.90;;;2.70;68.80;;;0.53;72.20;95521.72;5004158;28;20029;-65
2021/01/20 06:41:39;;;;;;;4.43;1.30;;;2.80;68.70;;;0.55;72.37;95519.81;4999189;28;20037;-65
2021/01/20 06:44:12;;;;;;;3.08;1.40;;;2.90;68.60;;;0.58;72.42;95519.53;5005123;28;20026;-65
2021/01/20 06:46:38;;;;;;;1.92;0.80;;;2.90;68.50;;;0.58;71.68;95519.53;4989817;28;20037;-65
2021/01/20 06:49:07;;;;;;;3.03;0.70;;;2.80;68.50;;;0.55;71.52;95527.56;5004263;28;20038;-66
2021/01/20 06:51:33;;;;;;;2.50;0.90;;;2.70;68.10;;;0.50;71.48;95527.19;4993021;28;20519;-67
2021/01/20 06:54:00;;;;;;;2.88;0.93;;;2.70;67.90;;;0.46;71.53;95520.66;4999907;28;20033;-67
2021/01/20 06:56:38;;;;;;;3.80;1.10;;;2.70;68.20;;;0.41;72.28;95522.84;5005750;28;20118;-65
2021/01/20 06:59:27;;;;;;;3.53;1.00;;;2.60;68.40;;;0.37;72.23;95523.28;5005858;28;20100;-65
2021/01/20 07:02:02;;;;;;;10.75;5.03;;;2.60;68.90;;;0.33;72.56;95514.16;5004503;28;20577;-64
2021/01/20 07:04:36;;;;;;;3.50;1.60;;;2.60;69.40;;;0.28;72.26;95523.16;5006155;28;20397;-66
2021/01/20 07:07:44;;;;;;;5.70;1.27;;;2.50;69.40;;;0.21;72.63;95521.25;5017573;28;20041;-65
2021/01/20 07:10:10;;;;;;;3.92;1.85;;;2.40;69.20;;;0.18;72.46;95517.19;4984175;28;20038;-67
2021/01/20 07:12:36;;;;;;;4.55;2.28;;;2.40;69.50;;;0.16;72.24;95513.09;4991314;28;20062;-66
2021/01/20 07:15:05;;;;;;;3.78;1.65;;;2.40;69.00;;;0.10;72.55;95508.50;4998261;28;20038;-67
2021/01/20 07:17:34;;;;;;;4.43;1.67;;;2.40;69.50;;;0.13;72.84;95519.38;4980046;28;20550;-68
2021/01/20 07:19:59;;;;;;;4.53;1.73;;;2.40;69.40;;;0.06;72.20;95512.31;5005788;28;20124;-66
2021/01/20 07:22:25;;;;;;;3.63;1.77;;;2.50;69.70;;;0.13;72.47;95523.72;5004538;28;20042;-68
2021/01/20 07:24:51;;;;;;;6.80;2.10;;;2.50;69.80;;;0.12;72.80;95519.50;4998568;28;20062;-67
2021/01/20 07:27:18;;;;;;;7.03;2.25;;;2.50;69.90;;;0.13;72.51;95521.16;4983440;28;20118;-67
2021/01/20 07:29:46;;;;;;;6.85;2.10;;;2.50;70.00;;;0.15;73.12;95521.81;4987271;28;20157;-68
2021/01/20 07:32:12;;;;;;;9.13;1.70;;;2.50;70.00;;;0.14;72.91;95515.03;4985328;28;20038;-64
2021/01/20 07:34:44;;;;;;;6.40;2.03;;;2.60;69.90;;;0.17;73.44;95515.56;4969498;28;20050;-68
2021/01/20 07:37:16;;;;;;;4.65;2.08;;;2.60;70.00;;;0.14;73.43;95504.69;4986118;28;20068;-67
2021/01/20 07:39:43;;;;;;;5.00;2.30;;;2.60;70.00;;;0.23;73.19;95515.00;4989542;28;20042;-70
2021/01/20 07:42:09;;;;;;;5.03;2.28;;;2.70;69.90;;;0.26;73.28;95516.50;4988639;28;20038;-69
2021/01/20 07:44:46;;;;;;;9.43;2.60;;;2.70;70.10;;;0.22;74.01;95507.38;4990227;28;20043;-66
2021/01/20 07:47:12;;;;;;;6.03;2.20;;;2.70;70.10;;;0.31;73.60;95516.88;4956309;28;20050;-66
2021/01/20 07:49:38;;;;;;;5.93;2.15;;;2.80;70.30;;;0.35;73.46;95507.88;4990406;28;20178;-67
2021/01/20 07:52:08;;;;;;;22.48;9.40;;;2.90;70.50;;;0.37;73.28;95515.50;4990549;28;20031;-70
2021/01/20 07:54:36;;;;;;;131.23;63.27;;;2.80;69.70;;;0.36;73.61;95509.53;4973445;28;20081;-70
2021/01/20 07:57:21;;;;;;;37.70;18.08;;;2.90;69.80;;;0.46;74.68;95520.66;4956819;28;20281;-71
2021/01/20 08:00:19;;;;;;;41.95;22.60;;;3.00;70.30;;;0.49;74.06;95517.78;4998593;28;20096;-70
2021/01/20 08:02:46;;;;;;;60.20;32.72;;;3.10;69.80;;;0.55;73.60;95512.03;4957454;28;20031;-68
2021/01/20 08:05:12;;;;;;;32.50;17.67;;;3.10;69.70;;;0.64;73.58;95517.31;4956575;28;20085;-69
2021/01/20 08:07:38;;;;;;;16.52;6.75;;;3.30;71.20;;;0.63;73.53;95500.97;4972134;28;20035;-68
2021/01/20 08:10:07;;;;;;;9.75;3.97;;;3.30;69.30;;;0.77;73.46;95510.88;4970138;28;20073;-65
2021/01/20 08:12:33;;;;;;;7.63;3.42;;;3.40;68.50;;;0.78;73.34;95502.16;4995589;28;20416;-66
2021/01/20 08:14:59;;;;;;;7.20;3.20;;;3.40;67.40;;;0.88;73.57;95512.44;4992787;28;20034;-70
2021/01/20 08:17:25;;;;;;;7.75;3.30;;;3.50;67.00;;;0.92;73.23;95506.03;5007441;28;20046;-65
2021/01/20 08:19:53;;;;;;;7.90;3.45;;;3.50;67.00;;;0.92;73.17;95500.88;4992132;28;20121;-68
2021/01/20 08:22:19;;;;;;;9.38;3.10;;;3.60;66.80;;;0.96;72.95;95485.84;4992226;28;20053;-69
2021/01/20 08:24:45;;;;;;;6.70;3.38;;;3.60;66.80;;;1.06;73.39;95508.13;4976617;28;20501;-68
2021/01/20 08:27:11;;;;;;;7.40;3.47;;;3.70;66.60;;;1.06;72.91;95502.94;5008711;28;20064;-69
2021/01/20 08:29:59;;;;;;;6.60;3.08;;;3.80;66.20;;;1.17;72.62;95500.16;4968292;28;20424;-69
2021/01/20 08:32:25;;;;;;;7.80;3.50;;;3.90;66.10;;;1.26;72.06;95502.84;4958185;28;20039;-68
2021/01/20 08:34:52;;;;;;;7.82;3.15;;;4.00;65.90;;;1.35;72.83;95507.13;4972358;28;20141;-69
2021/01/20 08:37:21;;;;;;;7.03;2.97;;;4.10;66.00;;;1.45;72.75;95508.69;4987394;28;20050;-68
2021/01/20 08:39:57;;;;;;;7.15;3.80;;;4.20;65.80;;;1.52;72.60;95504.56;4969736;28;20119;-68
2021/01/20 08:42:34;;;;;;;25.60;11.85;;;4.50;66.10;;;1.75;72.54;95509.28;4971506;28;20109;-66
2021/01/20 08:45:04;;;;;;;16.48;8.57;;;4.70;66.10;;;1.89;72.97;95506.16;4973432;28;20030;-64
2021/01/20 08:47:30;;;;;;;24.42;11.27;;;4.80;64.70;;;2.05;72.78;95521.88;4971150;28;20461;-67
2021/01/20 08:49:56;;;;;;;15.65;8.10;;;5.10;63.50;;;2.15;71.80;95511.38;4971072;28;20038;-69
2021/01/20 08:52:22;;;;;;;14.07;7.60;;;5.20;61.80;;;2.28;71.67;95511.00;4952314;28;20073;-67
2021/01/20 08:54:51;;;;;;;9.75;3.90;;;5.40;61.50;;;2.45;70.51;95518.72;4968335;28;20544;-65
2021/01/20 08:57:18;;;;;;;6.05;2.85;;;5.50;60.80;;;2.56;71.86;95519.44;4988004;28;20050;-68
2021/01/20 08:59:55;;;;;;;6.45;3.08;;;5.70;60.50;;;2.71;69.95;95512.69;4968729;28;20573;-67
2021/01/20 09:02:21;;;;;;;9.07;3.05;;;5.90;59.50;;;2.84;71.58;95515.69;4961362;28;20031;-67
2021/01/20 09:04:47;;;;;;;7.95;2.88;;;6.00;59.40;;;2.99;71.07;95511.53;4988018;28;20384;-68
2021/01/20 09:07:14;;;;;;;5.93;3.05;;;6.20;59.20;;;3.15;70.62;95494.34;4970265;28;20498;-68
2021/01/20 09:09:40;;;;;;;6.13;3.30;;;6.40;58.40;;;3.36;70.66;95503.34;4970448;28;20038;-70
2021/01/20 09:12:06;;;;;;;7.18;3.90;;;6.50;57.90;;;3.48;70.32;95501.28;4973377;28;20403;-68
2021/01/20 09:14:32;;;;;;;7.07;3.30;;;6.70;56.90;;;3.69;69.97;95504.25;4988649;28;20038;-67
2021/01/20 09:17:02;;;;;;;6.32;3.28;;;6.90;56.30;;;3.91;68.29;95517.59;4986931;28;20475;-70
2021/01/20 09:19:28;;;;;;;8.88;3.50;;;7.10;55.80;;;4.06;69.68;95531.56;4987079;28;20031;-68
2021/01/20 09:21:54;;;;;;;7.85;3.90;;;7.10;55.70;;;4.14;69.44;95513.34;4971410;28;20092;-68
2021/01/20 09:24:20;;;;;;;9.23;3.42;;;7.30;55.80;;;4.21;69.59;95509.13;4987191;28;20035;-70
2021/01/20 09:26:46;;;;;;;19.25;3.55;;;7.20;54.90;;;4.23;69.09;95499.34;4987082;28;20109;-66
2021/01/20 09:29:12;;;;;;;3.92;2.15;;;7.30;54.40;;;4.32;69.09;95499.34;4970855;28;20049;-67
2021/01/20 09:31:37;;;;;;;5.35;2.67;;;7.50;54.10;;;4.41;68.22;95496.56;4952647;28;20117;-69
2021/01/20 09:34:03;;;;;;;7.18;2.53;;;7.60;53.40;;;4.50;68.35;95507.75;4955469;28;20042;-68
2021/01/20 09:36:30;;;;;;;5.20;2.20;;;7.70;53.20;;;4.58;68.02;95494.75;4985620;28;20066;-69
2021/01/20 09:38:59;;;;;;;6.88;2.33;;;7.90;52.70;;;4.73;67.49;95489.63;4954804;28;20038;-69
2021/01/20 09:41:31;;;;;;;5.60;2.83;;;8.00;52.80;;;4.83;64.52;95496.31;4987995;28;20538;-67
2021/01/20 09:43:56;;;;;;;8.52;4.90;;;8.10;52.00;;;5.01;67.89;95492.66;4972371;28;20041;-70
2021/01/20 09:46:22;;;;;;;11.02;6.20;;;8.40;52.20;;;5.12;68.17;95498.28;4970249;28;20038;-67
2021/01/20 09:48:48;;;;;;;7.00;2.55;;;8.50;51.60;;;5.24;66.77;95483.09;4986014;28;20670;-67
2021/01/20 09:51:14;;;;;;;4.68;2.33;;;8.50;50.70;;;5.32;67.32;95482.22;4987002;28;20122;-66
2021/01/20 09:53:40;;;;;;;8.13;3.33;;;8.60;50.80;;;5.45;67.04;95477.28;4986037;28;20117;-67
2021/01/20 09:56:06;;;;;;;5.95;2.45;;;8.90;49.70;;;5.65;66.26;95482.84;4969837;28;20098;-67
2021/01/20 09:58:37;;;;;;;5.00;2.30;;;9.20;49.10;;;5.76;65.52;95475.44;5005144;28;20084;-66
2021/01/20 10:01:06;;;;;;;4.78;2.10;;;9.40;48.50;;;6.00;63.76;95471.84;5006487;28;20613;-66
2021/01/20 10:03:32;;;;;;;5.93;2.33;;;9.70;47.60;;;6.18;65.72;95473.34;5006966;28;20306;-67
2021/01/20 10:05:58;;;;;;;5.35;2.03;;;9.70;46.30;;;6.29;64.46;95459.84;4959142;28;20722;-70
2021/01/20 10:08:23;;;;;;;4.75;1.75;;;10.00;45.60;;;6.48;64.70;95459.31;5005473;28;20502;-67
2021/01/20 10:10:49;;;;;;;3.53;1.67;;;10.20;44.50;;;6.67;64.53;95464.03;5006068;28;20037;-67
2021/01/20 10:13:15;;;;;;;5.30;2.25;;;10.60;44.30;;;6.85;63.59;95457.63;4987199;28;20030;-67
2021/01/20 10:15:41;;;;;;;4.38;1.67;;;10.60;43.20;;;7.01;63.53;95460.03;4990177;28;20030;-67
2021/01/20 10:18:07;;;;;;;2.63;1.45;;;10.70;43.20;;;7.11;63.04;95450.09;5005414;28;20559;-70
2021/01/20 10:20:33;;;;;;;4.63;1.80;;;10.70;42.90;;;7.27;63.08;95452.53;5006002;28;20038;-68
2021/01/20 10:22:58;;;;;;;3.47;1.10;;;10.90;43.10;;;7.33;62.11;95443.13;4986806;28;20413;-67
2021/01/20 10:25:33;;;;;;;1.83;1.05;;;10.80;42.20;;;7.43;62.06;95440.19;4973458;28;20037;-69
2021/01/20 10:28:00;;;;;;;5.13;3.05;;;10.80;42.60;;;7.50;61.12;95433.25;4975894;28;20441;-68
2021/01/20 10:30:28;;;;;;;11.55;6.18;;;10.90;42.50;;;7.52;58.49;95415.53;5002281;28;20074;-68
2021/01/20 10:32:54;;;;;;;2.50;1.20;;;11.00;42.60;;;7.56;61.32;95420.22;4987362;28;20030;-70
2021/01/20 10:35:20;;;;;;;2.33;1.30;;;11.10;42.40;;;7.64;61.11;95414.84;4986838;28;20065;-67
2021/01/20 10:37:47;;;;;;;2.13;1.10;;;11.10;42.70;;;7.73;60.47;95407.69;4986345;28;20081;-67
2021/01/20 10:40:13;;;;;;;2.33;1.35;;;11.50;41.60;;;7.83;60.75;95408.16;4987102;28;20042;-69